createdAt,value
2023-05-18T00:02:18.815Z,6.85
2023-05-18T00:04:45.273Z,6.75
2023-05-18T00:07:12.603Z,6.76
2023-05-18T00:09:42.061Z,6.72
2023-05-18T00:12:25.921Z,6.57
2023-05-18T00:14:52.269Z,6.43
2023-05-18T00:17:24.887Z,6.32
2023-05-18T00:19:51.743Z,6.22
2023-05-18T00:22:18.855Z,6.15
2023-05-18T00:24:48.579Z,6.03
2023-05-18T00:27:17.897Z,6.02
2023-05-18T00:29:44.210Z,5.86
2023-05-18T00:32:10.727Z,5.80
2023-05-18T00:34:37.242Z,5.68
2023-05-18T00:37:03.685Z,5.70
2023-05-18T00:39:30.025Z,5.53
2023-05-18T00:42:06.703Z,5.40
2023-05-18T00:44:33.128Z,5.36
2023-05-18T00:47:00.204Z,5.24
2023-05-18T00:49:26.971Z,5.27
2023-05-18T00:51:53.774Z,5.26
2023-05-18T00:54:20.118Z,5.13
2023-05-18T00:56:48.358Z,5.08
2023-05-18T00:59:15.475Z,5.03
2023-05-18T01:01:46.212Z,4.99
2023-05-18T01:04:14.492Z,4.90
2023-05-18T01:06:50.850Z,4.84
2023-05-18T01:09:17.838Z,4.87
2023-05-18T01:12:03.007Z,4.79
2023-05-18T01:14:45.657Z,4.72
2023-05-18T01:17:33.443Z,4.62
2023-05-18T01:20:12.076Z,4.51
2023-05-18T01:22:38.941Z,4.42
2023-05-18T01:25:14.889Z,4.35
2023-05-18T01:27:46.273Z,4.30
2023-05-18T01:30:16.902Z,4.29
2023-05-18T01:32:43.518Z,4.27
2023-05-18T01:35:13.018Z,4.27
2023-05-18T01:37:39.692Z,4.29
2023-05-18T01:40:07.594Z,4.23
2023-05-18T01:42:34.942Z,4.22
2023-05-18T01:45:09.553Z,4.19
2023-05-18T01:47:38.115Z,4.32
2023-05-18T01:50:26.253Z,4.22
2023-05-18T01:53:03.751Z,4.16
2023-05-18T01:55:31.022Z,4.15
2023-05-18T01:57:58.568Z,4.13
2023-05-18T02:00:25.635Z,4.06
2023-05-18T02:02:52.156Z,4.00
2023-05-18T02:05:18.702Z,3.92
2023-05-18T02:07:47.302Z,3.85
2023-05-18T02:10:13.972Z,3.83
2023-05-18T02:13:07.399Z,3.81
2023-05-18T02:15:33.852Z,3.82
2023-05-18T02:18:03.406Z,3.75
2023-05-18T02:20:33.298Z,3.65
2023-05-18T02:23:00.159Z,3.58
2023-05-18T02:25:26.511Z,3.48
2023-05-18T02:27:52.910Z,3.40
2023-05-18T02:30:19.365Z,2.99
2023-05-18T02:33:01.304Z,3.32
2023-05-18T02:35:27.777Z,3.25
2023-05-18T02:37:55.863Z,3.13
2023-05-18T02:40:22.423Z,3.06
2023-05-18T02:42:48.768Z,3.02
2023-05-18T02:45:25.176Z,3.00
2023-05-18T02:47:51.557Z,2.88
2023-05-18T02:50:18.087Z,2.90
2023-05-18T02:52:45.516Z,2.89
2023-05-18T02:55:21.207Z,2.86
2023-05-18T02:57:48.193Z,2.84
2023-05-18T03:00:16.895Z,2.85
2023-05-18T03:02:44.399Z,2.87
2023-05-18T03:05:10.919Z,2.88
2023-05-18T03:07:37.295Z,2.81
2023-05-18T03:10:13.150Z,2.75
2023-05-18T03:12:39.478Z,2.72
2023-05-18T03:15:06.197Z,2.70
2023-05-18T03:17:33.775Z,2.65
2023-05-18T03:20:00.237Z,2.63
2023-05-18T03:22:26.586Z,2.61
2023-05-18T03:24:55.460Z,2.59
2023-05-18T03:27:30.061Z,2.54
2023-05-18T03:29:57.402Z,2.56
2023-05-18T03:32:28.363Z,2.58
2023-05-18T03:34:55.187Z,2.62
2023-05-18T03:37:21.623Z,2.82
2023-05-18T03:39:47.967Z,2.71
2023-05-18T03:42:14.328Z,2.82
2023-05-18T03:44:43.709Z,2.96
2023-05-18T03:47:10.110Z,3.03
2023-05-18T03:49:44.522Z,3.08
2023-05-18T03:52:11.374Z,3.10
2023-05-18T03:54:37.786Z,3.18
2023-05-18T03:57:11.516Z,3.29
2023-05-18T03:59:37.915Z,3.43
2023-05-18T04:02:06.429Z,3.36
2023-05-18T04:04:33.273Z,3.40
2023-05-18T04:07:02.019Z,3.40
2023-05-18T04:09:29.236Z,3.42
2023-05-18T04:11:55.806Z,3.43
2023-05-18T04:14:29.232Z,3.50
2023-05-18T04:16:58.246Z,3.49
2023-05-18T04:19:57.162Z,3.73
2023-05-18T04:22:25.595Z,3.83
2023-05-18T04:24:55.198Z,3.71
2023-05-18T04:27:25.740Z,3.67
2023-05-18T04:29:52.094Z,3.70
2023-05-18T04:32:19.109Z,3.70
2023-05-18T04:34:49.671Z,3.75
2023-05-18T04:37:29.490Z,3.81
2023-05-18T04:39:55.861Z,3.91
2023-05-18T04:42:22.403Z,3.93
2023-05-18T04:44:54.267Z,3.99
2023-05-18T04:47:23.965Z,4.07
2023-05-18T04:49:52.363Z,4.26
2023-05-18T04:52:19.621Z,4.26
2023-05-18T04:54:46.169Z,4.31
2023-05-18T04:57:13.089Z,4.34
2023-05-18T04:59:41.399Z,4.36
2023-05-18T05:02:07.870Z,4.46
2023-05-18T05:04:46.652Z,4.59
2023-05-18T05:07:12.995Z,4.63
2023-05-18T05:09:41.339Z,4.69
2023-05-18T05:12:11.212Z,4.86
2023-05-18T05:14:40.885Z,5.01
2023-05-18T05:17:13.470Z,5.01
2023-05-18T05:19:49.089Z,5.06
2023-05-18T05:22:16.056Z,5.16
2023-05-18T05:24:42.474Z,5.16
2023-05-18T05:27:11.212Z,5.28
2023-05-18T05:29:37.548Z,5.49
2023-05-18T05:32:05.192Z,5.43
2023-05-18T05:34:31.698Z,5.67
2023-05-18T05:36:59.028Z,5.65
2023-05-18T05:39:33.459Z,5.64
2023-05-18T05:42:01.784Z,5.76
2023-05-18T05:44:35.822Z,5.83
2023-05-18T05:47:02.808Z,5.89
2023-05-18T05:49:41.246Z,6.05
2023-05-18T05:52:07.634Z,6.02
2023-05-18T05:55:15.036Z,6.09
2023-05-18T05:57:42.865Z,6.13
2023-05-18T06:00:15.568Z,6.25
2023-05-18T06:02:42.104Z,6.30
2023-05-18T06:05:24.961Z,6.33
2023-05-18T06:07:51.433Z,6.64
2023-05-18T06:10:31.112Z,6.65
2023-05-18T06:12:57.608Z,6.81
2023-05-18T06:15:23.969Z,6.97
2023-05-18T06:17:50.627Z,7.12
2023-05-18T06:20:17.234Z,7.19
2023-05-18T06:22:44.649Z,7.27
2023-05-18T06:25:11.051Z,7.45
2023-05-18T06:27:42.402Z,7.48
2023-05-18T06:30:10.994Z,7.78
2023-05-18T06:32:37.906Z,8.17
2023-05-18T06:35:06.197Z,8.00
2023-05-18T06:37:33.630Z,8.31
2023-05-18T06:40:00.009Z,8.16
2023-05-18T06:42:31.780Z,8.33
2023-05-18T06:45:02.829Z,8.58
2023-05-18T06:47:49.584Z,8.65
2023-05-18T06:50:16.302Z,8.91
2023-05-18T06:52:48.941Z,9.08
2023-05-18T06:55:16.542Z,9.26
2023-05-18T06:57:58.737Z,9.39
2023-05-18T07:00:30.889Z,9.58
2023-05-18T07:03:01.720Z,9.57
2023-05-18T07:05:33.545Z,9.68
2023-05-18T07:08:05.080Z,9.70
2023-05-18T07:10:31.541Z,9.61
2023-05-18T07:12:59.005Z,9.84
2023-05-18T07:15:26.617Z,9.79
2023-05-18T07:18:03.584Z,9.70
2023-05-18T07:20:31.094Z,9.75
2023-05-18T07:23:06.861Z,9.64
2023-05-18T07:25:34.370Z,9.70
2023-05-18T07:28:02.734Z,9.95
2023-05-18T07:30:29.083Z,9.98
2023-05-18T07:33:02.613Z,10.06
2023-05-18T07:35:41.226Z,9.99
2023-05-18T07:38:11.175Z,10.22
2023-05-18T07:40:37.619Z,10.36
2023-05-18T07:43:07.203Z,10.43
2023-05-18T07:45:34.855Z,10.53
2023-05-18T07:48:01.852Z,10.45
2023-05-18T07:50:31.320Z,10.48
2023-05-18T07:53:11.019Z,10.51
2023-05-18T07:55:38.597Z,10.17
2023-05-18T07:58:11.264Z,10.44
2023-05-18T08:00:37.887Z,10.37
2023-05-18T08:03:06.824Z,10.42
2023-05-18T08:05:34.482Z,10.54
2023-05-18T08:08:00.917Z,10.52
2023-05-18T08:10:32.290Z,10.62
2023-05-18T08:12:59.637Z,10.66
2023-05-18T08:15:32.148Z,10.62
2023-05-18T08:17:58.810Z,10.70
2023-05-18T08:20:30.049Z,10.69
2023-05-18T08:22:56.843Z,10.88
2023-05-18T08:25:24.966Z,11.02
2023-05-18T08:27:53.202Z,11.06
2023-05-18T08:30:21.534Z,10.83
2023-05-18T08:32:48.296Z,10.82
2023-05-18T08:35:17.535Z,11.11
2023-05-18T08:37:44.158Z,11.14
2023-05-18T08:40:12.876Z,11.31
2023-05-18T08:42:58.944Z,11.37
2023-05-18T08:45:48.378Z,11.51
2023-05-18T08:48:16.548Z,11.66
2023-05-18T08:50:44.217Z,11.57
2023-05-18T08:53:15.552Z,11.56
2023-05-18T08:55:50.870Z,11.42
2023-05-18T08:58:19.511Z,11.09
2023-05-18T09:00:45.962Z,11.13
2023-05-18T09:03:14.300Z,11.21
2023-05-18T09:05:41.381Z,11.38
2023-05-18T09:08:09.618Z,11.56
2023-05-18T09:10:39.392Z,11.69
2023-05-18T09:13:07.972Z,11.94
2023-05-18T09:15:35.596Z,12.32
2023-05-18T09:18:02.230Z,12.35
2023-05-18T09:20:29.727Z,12.36
2023-05-18T09:22:59.290Z,12.59
2023-05-18T09:25:27.114Z,12.81
2023-05-18T09:28:21.091Z,12.93
2023-05-18T09:30:48.146Z,12.99
2023-05-18T09:33:21.712Z,12.78
2023-05-18T09:35:59.354Z,12.17
2023-05-18T09:38:27.976Z,12.16
2023-05-18T09:40:54.354Z,12.22
2023-05-18T09:43:20.839Z,12.30
2023-05-18T09:45:48.822Z,12.54
2023-05-18T09:48:18.556Z,12.78
2023-05-18T09:50:46.207Z,12.90
2023-05-18T09:53:13.944Z,13.24
2023-05-18T09:55:51.391Z,13.33
2023-05-18T09:58:19.896Z,13.46
2023-05-18T10:00:51.849Z,13.39
2023-05-18T10:03:22.348Z,13.15
2023-05-18T10:05:49.264Z,13.08
2023-05-18T10:08:15.882Z,13.16
2023-05-18T10:10:49.095Z,13.06
2023-05-18T10:13:25.267Z,13.06
2023-05-18T10:15:54.147Z,12.67
2023-05-18T10:18:23.011Z,12.63
2023-05-18T10:20:51.099Z,12.79
2023-05-18T10:23:18.895Z,13.08
2023-05-18T10:25:46.422Z,13.26
2023-05-18T10:28:14.301Z,13.26
2023-05-18T10:30:41.692Z,13.17
2023-05-18T10:33:20.576Z,13.04
2023-05-18T10:36:07.829Z,12.90
2023-05-18T10:38:36.716Z,13.05
2023-05-18T10:41:07.746Z,13.09
2023-05-18T10:43:42.787Z,13.06
2023-05-18T10:46:16.745Z,13.16
2023-05-18T10:48:54.002Z,13.26
2023-05-18T10:51:21.368Z,13.29
2023-05-18T10:53:48.322Z,13.35
2023-05-18T10:56:18.007Z,13.22
2023-05-18T10:58:51.154Z,13.38
2023-05-18T11:01:17.652Z,13.28
2023-05-18T11:03:44.776Z,13.38
2023-05-18T11:06:12.194Z,13.41
2023-05-18T11:08:43.474Z,13.35
2023-05-18T11:11:09.906Z,13.36
2023-05-18T11:13:43.656Z,13.47
2023-05-18T11:16:11.085Z,13.45
2023-05-18T11:18:38.566Z,13.39
2023-05-18T11:21:26.297Z,13.36
2023-05-18T11:24:12.570Z,13.24
2023-05-18T11:26:50.676Z,13.28
2023-05-18T11:29:18.475Z,13.37
2023-05-18T11:31:45.885Z,13.47
2023-05-18T11:34:31.034Z,13.71
2023-05-18T11:36:57.423Z,13.47
2023-05-18T11:39:24.991Z,13.44
2023-05-18T11:42:10.892Z,13.53
2023-05-18T11:44:40.003Z,13.80
2023-05-18T11:47:10.792Z,13.65
2023-05-18T11:49:47.302Z,13.43
2023-05-18T11:52:19.964Z,13.28
2023-05-18T11:54:53.641Z,13.12
2023-05-18T11:57:21.028Z,13.17
2023-05-18T11:59:48.066Z,13.14
2023-05-18T12:02:21.584Z,13.30
2023-05-18T12:04:50.711Z,13.28
2023-05-18T12:07:20.828Z,13.33
2023-05-18T12:09:48.038Z,12.37
2023-05-18T12:12:17.272Z,13.19
2023-05-18T12:14:55.797Z,13.08
2023-05-18T12:17:22.477Z,13.11
2023-05-18T12:19:49.385Z,12.70
2023-05-18T12:22:16.177Z,12.75
2023-05-18T12:24:43.015Z,12.89
2023-05-18T12:27:10.554Z,12.95
2023-05-18T12:29:44.412Z,12.85
2023-05-18T12:32:12.437Z,12.94
2023-05-18T12:34:44.146Z,13.03
2023-05-18T12:37:10.906Z,13.10
2023-05-18T12:39:37.396Z,13.29
2023-05-18T12:42:10.810Z,13.27
2023-05-18T12:44:37.667Z,13.45
2023-05-18T12:47:04.246Z,13.33
2023-05-18T12:49:41.513Z,13.18
2023-05-18T12:52:10.462Z,13.09
2023-05-18T12:54:36.893Z,13.14
2023-05-18T12:57:07.560Z,13.08
2023-05-18T12:59:33.974Z,13.09
2023-05-18T13:02:00.480Z,13.17
2023-05-18T13:04:34.406Z,13.28
2023-05-18T13:07:00.839Z,13.46
2023-05-18T13:09:28.246Z,13.59
2023-05-18T13:12:06.989Z,13.55
2023-05-18T13:14:37.825Z,13.66
2023-05-18T13:17:04.333Z,13.58
2023-05-18T13:19:31.667Z,13.44
2023-05-18T13:21:58.113Z,13.42
2023-05-18T13:24:24.598Z,13.40
2023-05-18T13:26:52.053Z,13.42
2023-05-18T13:29:18.417Z,13.32
2023-05-18T13:31:44.952Z,13.48
2023-05-18T13:34:11.474Z,13.59
2023-05-18T13:36:38.152Z,13.44
2023-05-18T13:39:07.224Z,13.14
2023-05-18T13:41:36.514Z,13.12
2023-05-18T13:44:03.459Z,13.23
2023-05-18T13:46:37.774Z,13.03
2023-05-18T13:49:12.714Z,13.06
2023-05-18T13:51:39.096Z,12.95
2023-05-18T13:54:05.657Z,12.89
2023-05-18T13:56:34.047Z,12.87
2023-05-18T13:59:00.421Z,12.75
2023-05-18T14:01:32.502Z,12.55
2023-05-18T14:03:58.987Z,12.76
2023-05-18T14:06:27.531Z,12.91
2023-05-18T14:08:53.893Z,13.03
2023-05-18T14:11:22.321Z,13.12
2023-05-18T14:13:48.696Z,13.05
2023-05-18T14:16:15.131Z,13.07
2023-05-18T14:18:41.550Z,13.25
2023-05-18T14:21:12.978Z,13.04
2023-05-18T14:23:39.321Z,13.09
2023-05-18T14:26:05.987Z,12.99
2023-05-18T14:28:32.344Z,12.96
2023-05-18T14:30:59.402Z,12.98
2023-05-18T14:33:25.782Z,12.95
2023-05-18T14:35:52.195Z,12.62
2023-05-18T14:38:19.666Z,12.76
2023-05-18T14:40:46.112Z,12.76
2023-05-18T14:43:12.639Z,12.85
2023-05-18T14:45:39.023Z,12.76
2023-05-18T14:48:06.466Z,12.71
2023-05-18T14:50:38.522Z,12.73
2023-05-18T14:53:07.362Z,12.81
2023-05-18T14:55:34.843Z,12.89
2023-05-18T14:58:02.388Z,12.75
2023-05-18T15:00:28.976Z,12.71
2023-05-18T15:02:58.593Z,12.62
2023-05-18T15:05:24.966Z,12.59
2023-05-18T15:07:53.344Z,12.53
2023-05-18T15:10:26.197Z,12.68
2023-05-18T15:12:52.577Z,12.26
2023-05-18T15:15:21.058Z,12.23
2023-05-18T15:17:47.705Z,12.40
2023-05-18T15:20:14.113Z,12.45
2023-05-18T15:22:41.349Z,12.56
2023-05-18T15:25:08.170Z,12.58
2023-05-18T15:27:37.487Z,12.73
2023-05-18T15:30:11.096Z,12.72
2023-05-18T15:32:37.950Z,12.77
2023-05-18T15:35:08.868Z,12.57
2023-05-18T15:37:36.248Z,12.49
2023-05-18T15:40:02.857Z,12.43
2023-05-18T15:42:31.296Z,12.60
2023-05-18T15:44:57.679Z,12.51
2023-05-18T15:47:24.030Z,12.37
2023-05-18T15:49:50.482Z,12.28
2023-05-18T15:52:19.947Z,12.38
2023-05-18T15:54:46.319Z,12.24
2023-05-18T15:57:12.736Z,12.11
2023-05-18T15:59:47.273Z,11.95
2023-05-18T16:02:13.790Z,11.84
2023-05-18T16:04:40.235Z,11.94
2023-05-18T16:07:06.708Z,11.92
2023-05-18T16:09:33.136Z,12.01
2023-05-18T16:12:03.554Z,12.04
2023-05-18T16:14:31.061Z,12.12
2023-05-18T16:16:57.618Z,11.94
2023-05-18T16:19:30.641Z,11.78
2023-05-18T16:21:58.056Z,11.60
2023-05-18T16:24:33.647Z,11.72
2023-05-18T16:27:05.614Z,11.84
2023-05-18T16:29:32.025Z,11.84
2023-05-18T16:32:00.464Z,11.97
2023-05-18T16:34:28.947Z,11.85
2023-05-18T16:36:56.510Z,11.91
2023-05-18T16:39:31.999Z,11.90
2023-05-18T16:42:02.537Z,11.91
2023-05-18T16:44:30.954Z,11.88
2023-05-18T16:46:57.493Z,11.82
2023-05-18T16:49:24.159Z,11.80
2023-05-18T16:51:51.516Z,11.77
2023-05-18T16:54:18.970Z,11.73
2023-05-18T16:56:45.676Z,11.80
2023-05-18T16:59:20.349Z,11.73
2023-05-18T17:01:48.942Z,11.62
2023-05-18T17:04:18.543Z,11.75
2023-05-18T17:06:51.443Z,11.36
2023-05-18T17:09:20.885Z,11.35
2023-05-18T17:11:51.351Z,11.29
2023-05-18T17:14:18.590Z,11.34
2023-05-18T17:16:45.991Z,11.51
2023-05-18T17:19:21.491Z,11.48
2023-05-18T17:21:49.345Z,11.44
2023-05-18T17:24:15.877Z,11.48
2023-05-18T17:26:45.202Z,11.44
2023-05-18T17:29:19.151Z,11.52
2023-05-18T17:31:47.475Z,11.43
2023-05-18T17:34:16.027Z,11.73
2023-05-18T17:36:49.026Z,11.55
2023-05-18T17:39:18.750Z,11.72
2023-05-18T17:41:51.360Z,11.73
2023-05-18T17:44:19.043Z,11.56
2023-05-18T17:46:47.501Z,11.50
2023-05-18T17:49:15.198Z,11.33
2023-05-18T17:51:41.787Z,11.23
2023-05-18T17:54:09.516Z,11.20
2023-05-18T17:56:36.147Z,11.10
2023-05-18T17:59:05.232Z,11.22
2023-05-18T18:01:32.106Z,11.05
2023-05-18T18:03:59.760Z,11.23
2023-05-18T18:06:29.551Z,11.05
2023-05-18T18:08:57.657Z,11.12
2023-05-18T18:11:25.340Z,10.97
2023-05-18T18:13:53.982Z,10.92
2023-05-18T18:16:21.783Z,11.04
2023-05-18T18:18:54.318Z,11.17
2023-05-18T18:21:26.809Z,11.05
2023-05-18T18:23:56.260Z,11.08
2023-05-18T18:26:22.704Z,11.09
2023-05-18T18:28:50.159Z,10.85
2023-05-18T18:31:16.683Z,10.89
2023-05-18T18:33:50.801Z,10.92
2023-05-18T18:36:18.193Z,10.89
2023-05-18T18:38:47.054Z,10.67
2023-05-18T18:41:17.424Z,10.63
2023-05-18T18:43:44.164Z,10.74
2023-05-18T18:46:10.630Z,10.91
2023-05-18T18:48:51.150Z,10.78
2023-05-18T18:51:17.557Z,10.80
2023-05-18T18:53:46.226Z,10.61
2023-05-18T18:56:12.614Z,10.71
2023-05-18T18:58:40.104Z,10.62
2023-05-18T19:01:06.504Z,10.59
2023-05-18T19:03:35.970Z,10.55
2023-05-18T19:06:04.427Z,10.44
2023-05-18T19:08:31.951Z,10.68
2023-05-18T19:10:58.352Z,10.57
2023-05-18T19:13:25.914Z,10.69
2023-05-18T19:15:53.766Z,10.68
2023-05-18T19:18:21.337Z,10.44
2023-05-18T19:20:54.949Z,10.43
2023-05-18T19:23:23.321Z,10.51
2023-05-18T19:25:50.784Z,10.36
2023-05-18T19:28:20.362Z,10.37
2023-05-18T19:30:48.171Z,10.43
2023-05-18T19:33:18.567Z,10.38
2023-05-18T19:35:45.973Z,10.57
2023-05-18T19:38:13.423Z,10.53
2023-05-18T19:40:49.110Z,10.29
2023-05-18T19:43:15.937Z,10.27
2023-05-18T19:45:43.415Z,10.25
2023-05-18T19:48:13.854Z,10.36
2023-05-18T19:50:41.255Z,10.28
2023-05-18T19:53:07.783Z,10.26
2023-05-18T19:55:38.273Z,10.36
2023-05-18T19:58:06.943Z,10.31
2023-05-18T20:00:34.715Z,10.29
2023-05-18T20:03:03.647Z,10.36
2023-05-18T20:05:31.185Z,10.25
2023-05-18T20:08:02.879Z,10.19
2023-05-18T20:10:32.419Z,10.31
2023-05-18T20:13:00.193Z,10.31
2023-05-18T20:15:28.121Z,10.19
2023-05-18T20:17:54.720Z,10.36
2023-05-18T20:20:21.139Z,10.25
2023-05-18T20:22:47.694Z,10.21
2023-05-18T20:25:14.119Z,10.22
2023-05-18T20:27:40.513Z,10.11
2023-05-18T20:30:08.281Z,10.09
2023-05-18T20:32:35.766Z,10.05
2023-05-18T20:35:02.339Z,10.21
2023-05-18T20:37:34.019Z,10.20
2023-05-18T20:40:09.095Z,10.13
2023-05-18T20:42:40.277Z,10.23
2023-05-18T20:45:08.460Z,10.10
2023-05-18T20:47:35.174Z,10.13
2023-05-18T20:50:02.297Z,10.14
2023-05-18T20:52:31.848Z,10.15
2023-05-18T20:55:00.545Z,10.20
2023-05-18T20:57:28.228Z,10.10
2023-05-18T20:59:54.654Z,10.22
2023-05-18T21:02:21.034Z,10.06
2023-05-18T21:04:52.541Z,10.10
2023-05-18T21:07:22.270Z,10.02
2023-05-18T21:09:49.853Z,10.12
2023-05-18T21:12:16.484Z,10.06
2023-05-18T21:14:44.818Z,10.00
2023-05-18T21:17:18.333Z,10.04
2023-05-18T21:19:45.673Z,9.89
2023-05-18T21:22:12.015Z,9.99
2023-05-18T21:24:40.679Z,10.19
2023-05-18T21:27:08.121Z,10.26
2023-05-18T21:29:37.576Z,10.07
2023-05-18T21:32:06.157Z,10.06
2023-05-18T21:34:32.686Z,10.05
2023-05-18T21:37:01.349Z,9.98
2023-05-18T21:39:27.721Z,9.83
2023-05-18T21:41:54.086Z,9.92
2023-05-18T21:44:27.615Z,9.95
2023-05-18T21:46:57.867Z,9.84
2023-05-18T21:49:24.439Z,9.79
2023-05-18T21:51:56.135Z,9.89
2023-05-18T21:54:22.730Z,9.85
2023-05-18T21:56:49.109Z,10.04
2023-05-18T21:59:15.458Z,9.90
2023-05-18T22:01:41.865Z,9.85
2023-05-18T22:04:08.272Z,9.94
2023-05-18T22:06:36.709Z,9.95
2023-05-18T22:09:03.160Z,9.50
2023-05-18T22:11:30.618Z,9.89
2023-05-18T22:14:01.015Z,9.76
2023-05-18T22:16:28.535Z,9.72
2023-05-18T22:18:54.916Z,9.62
2023-05-18T22:21:21.284Z,9.77
2023-05-18T22:23:47.633Z,9.70
2023-05-18T22:26:14.046Z,9.78
2023-05-18T22:28:40.460Z,9.63
2023-05-18T22:31:06.899Z,9.75
2023-05-18T22:33:33.252Z,9.73
2023-05-18T22:35:59.602Z,9.51
2023-05-18T22:38:25.963Z,9.49
2023-05-18T22:40:57.406Z,9.46
2023-05-18T22:43:23.769Z,9.71
2023-05-18T22:45:50.225Z,9.58
2023-05-18T22:48:27.008Z,9.49
2023-05-18T22:50:54.476Z,9.53
2023-05-18T22:53:20.821Z,9.46
2023-05-18T22:55:47.180Z,9.56
2023-05-18T22:58:13.550Z,9.59
2023-05-18T23:00:39.959Z,9.63
2023-05-18T23:03:19.516Z,9.52
2023-05-18T23:05:48.245Z,9.58
2023-05-18T23:08:15.340Z,9.70
2023-05-18T23:10:44.659Z,9.46
2023-05-18T23:13:19.589Z,9.43
2023-05-18T23:15:47.668Z,9.34
2023-05-18T23:18:14.454Z,9.40
2023-05-18T23:20:41.959Z,9.42
2023-05-18T23:23:08.921Z,9.47
2023-05-18T23:25:41.496Z,9.38
2023-05-18T23:28:07.844Z,9.31
2023-05-18T23:30:41.182Z,9.19
2023-05-18T23:33:07.788Z,9.22
2023-05-18T23:35:35.079Z,9.37
2023-05-18T23:38:10.467Z,9.50
2023-05-18T23:40:36.854Z,9.32
2023-05-18T23:43:03.346Z,9.37
2023-05-18T23:45:31.037Z,9.18
2023-05-18T23:47:57.682Z,9.18
2023-05-18T23:50:26.322Z,9.24
2023-05-18T23:52:59.831Z,9.25
2023-05-18T23:55:26.704Z,9.21
2023-05-18T23:57:53.715Z,9.20
